Date,TemperatureHighF,TemperatureAvgF,TemperatureLowF,DewpointHighF,DewpointAvgF,DewpointLowF,HumidityHigh,HumidityAvg,HumidityLow,PressureMaxIn,PressureMinIn,WindSpeedMaxMPH,WindSpeedAvgMPH,GustSpeedMaxMPH,PrecipitationSumIn
2013-8-1,101.0,87.6,73.0,69.0,63.7,57.0,77,48,25,0.00,40.00,0,-999,0,0.00
2013-8-2,101.0,87.6,74.0,66.0,60.9,54.0,74,45,21,0.00,40.00,0,-999,0,0.00
2013-8-3,100.0,86.7,73.0,65.0,60.8,56.0,75,45,24,0.00,40.00,0,-999,0,0.00
2013-8-4,98.0,86.7,76.0,68.0,63.0,58.0,77,48,27,0.00,40.00,0,-999,0,0.00
2013-8-5,99.0,85.0,77.0,68.0,62.5,55.0,68,49,25,0.00,40.00,0,-999,0,0.00
2013-8-6,104.0,90.6,77.0,69.0,61.1,54.0,75,42,21,0.00,40.00,0,-999,0,0.00
2013-8-7,105.0,91.0,77.0,67.0,60.9,54.0,70,40,19,0.00,40.00,0,-999,0,0.00
2013-8-8,103.0,88.3,76.0,68.0,60.5,48.0,72,43,19,0.00,40.00,0,-999,0,0.00
2013-8-9,99.0,87.7,77.0,73.0,60.7,-99.9,85,46,25,0.00,40.00,0,-999,0,0.01
2013-8-10,96.0,85.9,75.0,71.0,65.4,55.0,80,53,34,0.00,40.00,0,-999,0,0.01
2013-8-11,97.0,83.2,73.0,74.0,60.5,-99.9,89,61,32,0.00,40.00,0,-999,0,0.07
2013-8-12,98.0,82.7,72.0,70.0,66.1,58.0,90,61,28,0.00,40.00,0,-999,0,0.07
2013-8-13,99.0,86.3,75.0,69.0,63.5,56.0,75,49,24,0.00,40.00,0,-999,0,0.00
2013-8-14,89.0,82.5,76.0,71.0,63.7,-99.9,77,59,38,0.00,40.00,0,-999,0,0.00
2013-8-15,91.0,78.5,71.0,70.0,65.7,-99.9,92,73,42,0.00,40.00,0,-999,0,0.01
2013-8-16,88.0,75.8,67.0,71.0,63.5,57.0,100,70,35,0.00,40.00,0,-999,0,0.01
2013-8-17,93.0,78.6,67.0,67.0,59.7,54.0,85,56,28,0.00,40.00,0,-999,0,0.00
2013-8-18,94.0,80.5,68.0,58.0,55.0,52.0,68,44,25,0.00,40.00,0,-999,0,0.00
2013-8-19,94.0,80.5,67.0,60.0,52.5,-99.9,74,47,27,0.00,40.00,0,-999,0,0.00
2013-8-20,96.0,82.3,71.0,62.0,56.1,49.0,70,44,22,0.00,40.00,0,-999,0,0.00
2013-8-21,94.0,80.7,68.0,66.0,61.2,52.0,81,54,30,0.00,40.00,0,-999,0,0.00
2013-8-22,97.0,85.5,72.0,68.0,62.5,57.0,81,49,27,0.00,40.00,0,-999,0,0.00
2013-8-23,94.0,80.3,73.0,77.0,67.0,62.0,92,65,35,0.00,40.00,0,-999,0,0.46
2013-8-24,94.0,82.4,70.0,70.0,65.4,61.0,96,60,35,0.00,40.00,0,-999,0,0.01
2013-8-25,95.0,84.3,72.0,69.0,63.5,58.0,83,52,29,0.00,40.00,0,-999,0,0.01
2013-8-26,91.0,82.1,72.0,68.0,64.0,60.0,84,56,36,0.00,40.00,0,-999,0,0.00
2013-8-27,80.0,73.3,70.0,71.0,68.5,66.0,99,85,61,0.00,40.00,0,-999,0,0.20
2013-8-28,94.0,87.1,76.0,68.0,62.1,57.0,70,45,29,0.00,40.00,0,-999,0,0.01
2013-8-29,95.0,82.0,69.0,71.0,64.8,58.0,94,60,29,0.00,40.00,0,-999,0,0.00
2013-8-30,97.0,84.7,72.0,71.0,63.3,55.0,87,53,25,0.00,40.00,0,-999,0,0.00
2013-8-31,98.0,85.8,70.0,72.0,47.3,-99.9,86,49,20,0.00,40.00,0,-999,0,0.00